Bruni, Texas
Current Conditions -  °F | °C
As of 11:15 PM on Friday 24 Oct 2014 (Local Time) from KHBV Reporting Station
Clear Clear  
Wind Chill: 67°   Ceiling: Unl
Heat Index: 67°   Visibility: 10mi
Dew Point: 59°   Wind: 5mph
Humidity: 75%   Direction: 170°S
Pressure: 30.16"   Gusts: NA
Location:  27.43°N, 98.84°W
Report Text: KHBV 250415Z AUTO 17004KT 10SM CLR 19/15 A3016 RMK AO2 T01940149
Loading
Personal Weather Stations






























Interactive Weather Map
Tropical Storm Tracking
New forecast layout! Learn more

10-Day Weather Forecast

Advertisements
Track Severe Weather on mobile